Time;durP1;ratioP1;P1;durP2;ratioP2;P2;SDS_P1;SDS_P2;PMS_P1;PMS_P2;Temp;Humidity;BMP_temperature;BMP_pressure;BME280_temperature;BME280_humidity;BME280_pressure;Samples;Min_cycle;Max_cycle;Signal;HPM_P1;HPM_P2
2022/12/29 00:01:35;;;;;;;1.60;0.98;;;;;;;;;;5043847;28;20106;-83
2022/12/29 00:04:00;;;;;;;3.08;0.73;;;;;;;;;;5024638;28;20051;-83
2022/12/29 00:06:27;;;;;;;1.73;0.85;;;;;;;;;;5016365;28;20029;-83
2022/12/29 00:08:52;;;;;;;0.70;0.70;;;;;;;;;;5047085;28;20078;-83
2022/12/29 00:11:21;;;;;;;1.00;0.90;;;;;;;;;;5042266;28;20045;-84
2022/12/29 00:16:31;;;;;;;1.33;0.52;;;;;;;;;;5036420;28;20076;-84
2022/12/29 00:18:57;;;;;;;5.40;1.00;;;;;;;;;;5041186;28;20049;-83
2022/12/29 00:35:10;;;;;;;0.95;0.70;;;;;;;;;;5046020;28;20309;-83
2022/12/29 00:45:55;;;;;;;1.60;0.70;;;;;;;;;;5040964;28;20105;-82
2022/12/29 00:51:07;;;;;;;1.15;0.80;;;;;;;;;;5045918;28;20036;-84
2022/12/29 00:53:32;;;;;;;2.05;0.80;;;;;;;;;;5046417;28;20041;-83
2022/12/29 00:55:58;;;;;;;2.78;0.90;;;;;;;;;;5030475;28;20029;-84
2022/12/29 00:58:26;;;;;;;1.63;0.60;;;;;;;;;;5033501;28;20074;-84
2022/12/29 01:00:51;;;;;;;2.08;1.05;;;;;;;;;;5049757;28;20053;-84
2022/12/29 01:03:16;;;;;;;1.73;0.70;;;;;;;;;;5050875;28;20059;-84
2022/12/29 01:05:42;;;;;;;2.60;1.30;;;;;;;;;;5031779;28;20085;-84
2022/12/29 01:08:08;;;;;;;2.20;1.05;;;;;;;;;;5049773;28;20033;-85
2022/12/29 01:10:33;;;;;;;4.43;1.00;;;;;;;;;;5031214;28;20041;-84
2022/12/29 01:12:58;;;;;;;1.58;0.98;;;;;;;;;;5029799;28;20112;-85
2022/12/29 01:15:24;;;;;;;1.48;1.05;;;;;;;;;;5048966;28;20021;-84
2022/12/29 01:17:49;;;;;;;1.25;1.00;;;;;;;;;;5043643;28;20025;-84
2022/12/29 01:20:14;;;;;;;3.05;1.50;;;;;;;;;;5047548;28;20056;-84
2022/12/29 01:22:40;;;;;;;11.98;3.25;;;;;;;;;;5031256;28;20052;-84
2022/12/29 01:25:06;;;;;;;7.88;2.28;;;;;;;;;;5046658;28;20418;-86
2022/12/29 01:27:32;;;;;;;2.40;1.50;;;;;;;;;;5038347;28;20063;-84
2022/12/29 01:29:57;;;;;;;2.22;0.80;;;;;;;;;;5038682;28;20019;-84
2022/12/29 01:32:22;;;;;;;2.10;0.80;;;;;;;;;;5023428;28;20115;-84
2022/12/29 01:34:48;;;;;;;0.52;0.52;;;;;;;;;;5022316;28;20041;-85
2022/12/29 01:37:13;;;;;;;0.38;0.38;;;;;;;;;;5031263;28;20107;-84
2022/12/29 01:39:38;;;;;;;1.48;0.60;;;;;;;;;;5030655;28;20039;-84
2022/12/29 01:42:04;;;;;;;1.48;0.57;;;;;;;;;;5021025;28;20108;-84
2022/12/29 01:44:59;;;;;;;1.30;0.52;;;;;;;;;;5047769;28;20047;-84
2022/12/29 01:47:30;;;;;;;0.73;0.52;;;;;;;;;;5030828;28;20040;-84
2022/12/29 01:50:02;;;;;;;0.82;0.60;;;;;;;;;;5030516;28;20052;-83
2022/12/29 01:52:31;;;;;;;0.60;0.50;;;;;;;;;;5031061;28;20032;-84
2022/12/29 01:54:57;;;;;;;2.75;0.60;;;;;;;;;;5028583;28;20041;-85
2022/12/29 01:57:31;;;;;;;0.65;0.60;;;;;;;;;;5031705;28;20031;-83
2022/12/29 02:00:07;;;;;;;4.35;2.15;;;;;;;;;;5028477;28;20036;-84
2022/12/29 02:02:33;;;;;;;8.07;2.53;;;;;;;;;;5035207;28;20482;-85
2022/12/29 02:05:03;;;;;;;6.57;2.75;;;;;;;;;;5029640;28;20036;-85
2022/12/29 02:07:28;;;;;;;5.70;2.40;;;;;;;;;;5047218;28;20064;-85
2022/12/29 02:09:55;;;;;;;3.65;2.10;;;;;;;;;;5047576;28;20057;-84
2022/12/29 02:12:22;;;;;;;2.13;1.15;;;;;;;;;;5049068;28;20028;-84
2022/12/29 02:14:55;;;;;;;1.30;0.95;;;;;;;;;;5030349;28;20037;-84
2022/12/29 02:17:34;;;;;;;2.10;1.10;;;;;;;;;;5047906;28;20041;-84
2022/12/29 02:20:17;;;;;;;2.63;1.00;;;;;;;;;;5045998;28;20094;-84
2022/12/29 02:23:01;;;;;;;;;;;;;;;;;;5029758;28;20522;-84
2022/12/29 02:25:49;;;;;;;11.95;5.30;;;;;;;;;;5036304;28;20321;-86
2022/12/29 02:28:45;;;;;;;12.88;6.10;;;;;;;;;;5039026;28;20120;-85
2022/12/29 02:31:13;;;;;;;6.28;2.58;;;;;;;;;;5031870;28;20033;-85
2022/12/29 02:33:55;;;;;;;9.43;4.57;;;;;;;;;;5022838;28;20021;-85
2022/12/29 02:36:40;;;;;;;4.45;2.38;;;;;;;;;;5013294;28;20136;-84
2022/12/29 02:39:37;;;;;;;1.83;1.23;;;;;;;;;;5046109;28;20087;-86
2022/12/29 02:42:28;;;;;;;3.28;1.27;;;;;;;;;;5030159;28;20072;-84
2022/12/29 02:45:02;;;;;;;2.00;0.95;;;;;;;;;;5025683;28;20037;-84
2022/12/29 02:48:05;;;;;;;2.75;0.90;;;;;;;;;;5040593;28;20060;-84
2022/12/29 02:50:37;;;;;;;1.35;1.00;;;;;;;;;;5025106;28;20565;-85
2022/12/29 02:53:09;;;;;;;4.83;1.77;;;;;;;;;;5028602;28;20040;-86
2022/12/29 02:55:34;;;;;;;3.40;1.45;;;;;;;;;;5047416;28;20565;-85
2022/12/29 02:58:22;;;;;;;10.98;4.47;;;;;;;;;;5039760;28;20083;-85
2022/12/29 03:01:01;;;;;;;12.68;6.68;;;;;;;;;;5041284;28;20774;-84
2022/12/29 03:03:36;;;;;;;11.27;4.78;;;;;;;;;;5022656;28;20024;-85
2022/12/29 03:06:26;;;;;;;17.45;7.35;;;;;;;;;;5045476;28;20017;-84
2022/12/29 03:09:04;;;;;;;21.42;8.73;;;;;;;;;;5045939;28;20119;-85
2022/12/29 03:17:38;;;;;;;4.50;1.40;;;;;;;;;;5047001;28;20040;-85
2022/12/29 03:20:07;;;;;;;3.55;1.15;;;;;;;;;;5047164;28;20545;-85
2022/12/29 03:22:38;;;;;;;3.85;0.80;;;;;;;;;;5018502;28;20041;-85
2022/12/29 03:25:07;;;;;;;2.33;0.73;;;;;;;;;;5019724;28;20033;-85
2022/12/29 03:27:38;;;;;;;1.88;0.68;;;;;;;;;;5046022;28;20028;-85
2022/12/29 03:30:06;;;;;;;0.93;0.43;;;;;;;;;;5028888;28;20562;-85
2022/12/29 03:32:36;;;;;;;3.22;1.02;;;;;;;;;;5054840;28;20109;-84
2022/12/29 03:35:04;;;;;;;0.93;0.55;;;;;;;;;;5045474;28;20061;-85
2022/12/29 03:37:36;;;;;;;5.10;1.10;;;;;;;;;;5046408;28;20037;-85
2022/12/29 03:40:03;;;;;;;3.50;1.00;;;;;;;;;;5029565;28;20025;-84
2022/12/29 03:42:32;;;;;;;2.55;0.68;;;;;;;;;;5031705;28;20025;-84
2022/12/29 03:44:57;;;;;;;0.98;0.50;;;;;;;;;;5029397;28;20051;-85
2022/12/29 03:47:23;;;;;;;2.75;0.70;;;;;;;;;;5026203;28;20280;-84
2022/12/29 03:49:49;;;;;;;3.58;1.05;;;;;;;;;;5021103;28;20033;-84
2022/12/29 03:52:15;;;;;;;2.85;0.60;;;;;;;;;;5045838;28;20087;-84
2022/12/29 03:54:40;;;;;;;2.33;0.75;;;;;;;;;;5046125;28;20435;-85
2022/12/29 03:57:06;;;;;;;1.88;0.60;;;;;;;;;;5029204;28;20504;-84
2022/12/29 03:59:31;;;;;;;2.13;1.02;;;;;;;;;;5028572;28;20036;-85
2022/12/29 04:01:56;;;;;;;6.68;3.45;;;;;;;;;;5046041;28;20565;-85
2022/12/29 04:04:22;;;;;;;16.80;6.35;;;;;;;;;;5029069;28;20039;-84
2022/12/29 04:06:47;;;;;;;23.58;10.88;;;;;;;;;;5027958;28;20033;-84
2022/12/29 04:09:12;;;;;;;28.30;12.48;;;;;;;;;;5045380;28;20035;-84
2022/12/29 04:11:38;;;;;;;31.40;13.18;;;;;;;;;;5036498;28;20039;-85
2022/12/29 04:14:03;;;;;;;25.55;11.70;;;;;;;;;;5026850;28;20119;-85
2022/12/29 04:16:28;;;;;;;22.42;10.60;;;;;;;;;;5028316;28;20036;-84
2022/12/29 04:18:54;;;;;;;27.10;10.88;;;;;;;;;;5027856;28;20106;-85
2022/12/29 04:21:19;;;;;;;29.05;11.82;;;;;;;;;;5026512;28;20024;-85
2022/12/29 04:23:44;;;;;;;15.88;7.05;;;;;;;;;;5024158;28;20033;-85
2022/12/29 04:26:10;;;;;;;15.38;8.10;;;;;;;;;;5021907;28;20029;-86
2022/12/29 04:28:36;;;;;;;18.35;8.63;;;;;;;;;;5020015;28;20037;-85
2022/12/29 04:31:03;;;;;;;21.77;8.50;;;;;;;;;;5024355;28;20080;-85
2022/12/29 04:33:28;;;;;;;20.05;8.30;;;;;;;;;;5014046;28;20020;-83
2022/12/29 04:35:54;;;;;;;22.45;10.55;;;;;;;;;;5029308;28;20009;-84
2022/12/29 04:38:21;;;;;;;25.38;9.88;;;;;;;;;;5029198;28;20029;-85
2022/12/29 04:40:46;;;;;;;26.38;12.23;;;;;;;;;;5044308;28;20102;-84
2022/12/29 04:43:13;;;;;;;25.80;12.45;;;;;;;;;;5028324;28;20441;-84
2022/12/29 04:45:48;;;;;;;31.40;12.43;;;;;;;;;;5037631;28;20041;-85
2022/12/29 04:48:14;;;;;;;18.25;9.52;;;;;;;;;;5032909;28;20092;-85
2022/12/29 04:50:41;;;;;;;21.58;9.95;;;;;;;;;;5044963;28;20039;-84
2022/12/29 04:53:07;;;;;;;19.92;7.97;;;;;;;;;;5031363;28;20500;-85
2022/12/29 04:55:32;;;;;;;17.13;6.65;;;;;;;;;;5027439;28;20526;-85
2022/12/29 04:57:58;;;;;;;19.00;8.57;;;;;;;;;;5028141;28;20043;-85
2022/12/29 05:00:23;;;;;;;17.63;7.65;;;;;;;;;;5043731;28;20511;-83
2022/12/29 05:02:49;;;;;;;12.65;4.90;;;;;;;;;;5019187;28;20025;-84
2022/12/29 05:05:14;;;;;;;10.27;4.80;;;;;;;;;;5043885;28;20036;-84
2022/12/29 05:07:40;;;;;;;13.75;5.38;;;;;;;;;;5026207;28;20090;-84
2022/12/29 05:10:06;;;;;;;13.15;5.20;;;;;;;;;;5026849;28;20093;-85
2022/12/29 05:12:33;;;;;;;15.05;6.68;;;;;;;;;;5042628;28;20017;-85
2022/12/29 05:14:59;;;;;;;9.90;4.82;;;;;;;;;;5027940;28;20139;-84
2022/12/29 05:17:25;;;;;;;12.75;5.28;;;;;;;;;;5027877;28;20534;-84
2022/12/29 05:19:50;;;;;;;13.38;5.15;;;;;;;;;;5045176;28;20107;-85
2022/12/29 05:22:15;;;;;;;8.07;3.90;;;;;;;;;;5042932;28;20029;-85
2022/12/29 05:24:41;;;;;;;19.60;6.30;;;;;;;;;;5010353;28;20461;-85
2022/12/29 05:27:06;;;;;;;14.05;7.20;;;;;;;;;;5040515;28;20288;-85
2022/12/29 05:29:31;;;;;;;16.83;8.77;;;;;;;;;;5027999;28;20101;-84
2022/12/29 05:31:57;;;;;;;13.55;7.20;;;;;;;;;;5043463;28;20035;-84
2022/12/29 05:34:22;;;;;;;11.57;6.65;;;;;;;;;;5029698;28;20041;-84
2022/12/29 05:36:47;;;;;;;16.58;7.10;;;;;;;;;;5037060;28;20107;-85
2022/12/29 05:39:13;;;;;;;15.43;6.32;;;;;;;;;;5048112;28;20037;-84
2022/12/29 05:41:38;;;;;;;13.18;6.38;;;;;;;;;;5047982;28;20064;-83
2022/12/29 05:44:03;;;;;;;12.95;6.30;;;;;;;;;;5029189;28;20470;-84
2022/12/29 05:46:29;;;;;;;12.93;6.57;;;;;;;;;;5043396;28;20114;-84
2022/12/29 05:48:54;;;;;;;14.40;6.03;;;;;;;;;;5037698;28;20029;-85
2022/12/29 05:51:19;;;;;;;17.65;7.10;;;;;;;;;;5047219;28;20032;-85
2022/12/29 05:53:45;;;;;;;15.50;7.50;;;;;;;;;;5049323;28;20068;-85
2022/12/29 05:56:10;;;;;;;13.73;6.72;;;;;;;;;;5030054;28;20032;-85
2022/12/29 05:58:35;;;;;;;13.13;5.55;;;;;;;;;;5040593;28;20091;-85
2022/12/29 06:01:01;;;;;;;7.15;3.88;;;;;;;;;;5042726;28;20029;-85
2022/12/29 06:03:26;;;;;;;7.10;3.15;;;;;;;;;;5045222;28;20040;-84
2022/12/29 06:05:51;;;;;;;3.80;1.85;;;;;;;;;;5048496;28;20017;-85
2022/12/29 06:08:16;;;;;;;5.30;1.83;;;;;;;;;;5047096;28;20071;-84
2022/12/29 06:10:42;;;;;;;5.05;2.22;;;;;;;;;;5048031;28;20124;-84
2022/12/29 06:13:07;;;;;;;7.07;2.58;;;;;;;;;;5030016;28;20078;-85
2022/12/29 06:15:33;;;;;;;7.22;2.00;;;;;;;;;;5020652;28;20444;-85
2022/12/29 06:17:59;;;;;;;4.40;1.80;;;;;;;;;;5028755;28;20889;-85
2022/12/29 06:20:24;;;;;;;8.07;3.63;;;;;;;;;;5026243;28;20133;-85
2022/12/29 06:22:50;;;;;;;7.55;2.58;;;;;;;;;;5029625;28;20033;-84
2022/12/29 06:25:16;;;;;;;4.63;2.33;;;;;;;;;;5033789;28;20216;-85
2022/12/29 06:27:41;;;;;;;5.32;2.53;;;;;;;;;;5043722;28;20036;-84
2022/12/29 06:30:08;;;;;;;7.85;2.97;;;;;;;;;;5029463;28;20129;-85
2022/12/29 06:32:34;;;;;;;4.75;1.42;;;;;;;;;;5023267;28;20766;-85
2022/12/29 06:34:59;;;;;;;4.03;1.10;;;;;;;;;;5047584;28;20032;-84
2022/12/29 06:37:24;;;;;;;3.17;1.15;;;;;;;;;;5029928;28;20033;-85
2022/12/29 06:39:50;;;;;;;1.88;1.02;;;;;;;;;;5028830;28;20383;-84
2022/12/29 06:42:15;;;;;;;5.55;1.10;;;;;;;;;;5027392;28;21975;-85
2022/12/29 06:44:41;;;;;;;3.95;0.95;;;;;;;;;;5045669;28;20056;-85
2022/12/29 06:47:06;;;;;;;5.60;1.05;;;;;;;;;;5028518;28;20037;-84
2022/12/29 06:49:31;;;;;;;2.45;0.93;;;;;;;;;;5024393;28;20029;-85
2022/12/29 06:51:59;;;;;;;2.45;0.88;;;;;;;;;;5046896;28;20628;-86
2022/12/29 06:54:24;;;;;;;6.03;1.00;;;;;;;;;;5048782;28;20057;-86
2022/12/29 06:56:50;;;;;;;6.85;1.45;;;;;;;;;;5030158;28;20075;-86
2022/12/29 06:59:15;;;;;;;5.18;1.50;;;;;;;;;;5046736;28;20044;-86
2022/12/29 07:01:40;;;;;;;5.03;1.38;;;;;;;;;;5047158;28;20784;-86
2022/12/29 07:04:06;;;;;;;3.72;0.90;;;;;;;;;;5046545;28;20037;-86
2022/12/29 07:06:31;;;;;;;7.18;1.35;;;;;;;;;;5018880;28;20033;-85
2022/12/29 07:08:57;;;;;;;3.78;1.13;;;;;;;;;;5030917;28;20051;-85
2022/12/29 07:11:23;;;;;;;4.18;0.90;;;;;;;;;;5026682;28;20041;-83
2022/12/29 07:13:48;;;;;;;3.90;1.48;;;;;;;;;;5047249;28;20047;-84
2022/12/29 07:16:13;;;;;;;9.93;1.45;;;;;;;;;;5024153;28;20569;-84
2022/12/29 07:18:39;;;;;;;4.65;1.05;;;;;;;;;;5041355;28;20029;-83
2022/12/29 07:21:05;;;;;;;2.03;0.80;;;;;;;;;;5028192;28;20624;-84
2022/12/29 07:23:30;;;;;;;11.10;1.45;;;;;;;;;;5042533;28;20045;-83
2022/12/29 07:26:00;;;;;;;2.20;0.90;;;;;;;;;;5027775;28;20582;-84
2022/12/29 07:28:25;;;;;;;9.65;1.25;;;;;;;;;;5034132;28;20037;-85
2022/12/29 07:30:51;;;;;;;7.63;1.77;;;;;;;;;;5036330;28;20040;-85
2022/12/29 07:33:16;;;;;;;5.05;1.10;;;;;;;;;;5040613;28;20112;-84
2022/12/29 07:35:41;;;;;;;3.05;0.77;;;;;;;;;;5040017;28;20379;-86
2022/12/29 07:38:07;;;;;;;4.40;0.75;;;;;;;;;;5046225;28;20029;-85
2022/12/29 07:40:32;;;;;;;6.57;1.23;;;;;;;;;;5044679;28;20079;-85
2022/12/29 07:42:57;;;;;;;4.60;0.80;;;;;;;;;;5020408;28;20183;-85
2022/12/29 07:45:22;;;;;;;8.02;1.15;;;;;;;;;;5045042;28;20044;-86
2022/12/29 07:47:49;;;;;;;8.20;1.40;;;;;;;;;;5055058;28;20182;-86
2022/12/29 07:50:14;;;;;;;3.63;1.33;;;;;;;;;;5037798;28;20041;-87
2022/12/29 07:52:40;;;;;;;5.10;1.20;;;;;;;;;;5037553;28;20035;-86
2022/12/29 07:55:06;;;;;;;2.50;0.75;;;;;;;;;;5028170;28;20049;-85
2022/12/29 07:57:31;;;;;;;5.78;0.95;;;;;;;;;;5038994;28;20025;-85
2022/12/29 07:59:56;;;;;;;4.90;0.98;;;;;;;;;;5022027;28;20025;-84
2022/12/29 08:02:21;;;;;;;7.00;0.80;;;;;;;;;;5017599;28;20114;-85
2022/12/29 08:04:47;;;;;;;5.47;0.93;;;;;;;;;;5011347;28;20055;-86
2022/12/29 08:07:12;;;;;;;3.60;0.93;;;;;;;;;;5044545;28;20029;-85
2022/12/29 08:09:37;;;;;;;5.53;1.00;;;;;;;;;;5032165;28;20029;-85
2022/12/29 08:12:03;;;;;;;2.85;1.23;;;;;;;;;;5043429;28;20023;-86
2022/12/29 08:14:28;;;;;;;7.18;0.98;;;;;;;;;;5052758;28;20060;-86
2022/12/29 08:16:53;;;;;;;3.17;0.73;;;;;;;;;;5045244;28;20083;-82
2022/12/29 08:19:19;;;;;;;3.35;1.20;;;;;;;;;;5019681;28;20087;-81
2022/12/29 08:21:44;;;;;;;1.67;0.95;;;;;;;;;;5019505;28;20116;-82
2022/12/29 08:24:10;;;;;;;2.42;0.73;;;;;;;;;;5013554;28;20021;-81
2022/12/29 08:26:35;;;;;;;10.90;1.08;;;;;;;;;;5019297;28;20515;-82
2022/12/29 08:29:01;;;;;;;5.97;1.08;;;;;;;;;;5014252;28;20574;-82
2022/12/29 08:31:26;;;;;;;5.15;0.93;;;;;;;;;;5025383;28;20029;-81
2022/12/29 08:33:51;;;;;;;14.70;1.27;;;;;;;;;;5024444;28;20037;-82
2022/12/29 08:36:17;;;;;;;3.53;1.25;;;;;;;;;;5024337;28;20021;-82
2022/12/29 08:38:42;;;;;;;6.10;1.10;;;;;;;;;;5025685;28;20029;-82
2022/12/29 08:41:07;;;;;;;4.25;0.95;;;;;;;;;;5025670;28;20088;-82
2022/12/29 08:43:32;;;;;;;6.20;0.90;;;;;;;;;;5024200;28;20083;-82
2022/12/29 08:45:58;;;;;;;5.93;1.20;;;;;;;;;;5025355;28;20041;-86
2022/12/29 08:48:24;;;;;;;3.85;0.93;;;;;;;;;;5022797;28;20081;-80
2022/12/29 08:50:50;;;;;;;2.22;0.70;;;;;;;;;;5024774;28;20076;-81
2022/12/29 08:53:15;;;;;;;9.27;1.40;;;;;;;;;;5022761;28;20421;-81
2022/12/29 08:55:41;;;;;;;4.22;0.93;;;;;;;;;;5024069;28;20116;-81
2022/12/29 08:58:06;;;;;;;3.42;1.00;;;;;;;;;;5023354;28;20444;-82
2022/12/29 09:00:31;;;;;;;12.05;1.42;;;;;;;;;;5020863;28;20547;-81
2022/12/29 09:02:57;;;;;;;5.43;1.00;;;;;;;;;;5010349;28;20033;-81
2022/12/29 09:05:22;;;;;;;5.28;1.38;;;;;;;;;;5013917;28;20037;-81
2022/12/29 09:07:47;;;;;;;7.28;1.15;;;;;;;;;;5026759;28;20034;-81
2022/12/29 09:10:13;;;;;;;16.02;1.98;;;;;;;;;;5025092;28;20119;-81
2022/12/29 09:12:38;;;;;;;2.22;0.60;;;;;;;;;;5028883;28;20021;-81
2022/12/29 09:15:04;;;;;;;6.53;1.30;;;;;;;;;;5027596;28;20450;-82
2022/12/29 09:17:45;;;;;;;2.85;0.70;;;;;;;;;;5029317;28;20037;-80
2022/12/29 09:20:19;;;;;;;3.20;1.15;;;;;;;;;;5040322;28;20053;-81
2022/12/29 09:22:46;;;;;;;10.00;1.60;;;;;;;;;;5022163;28;20481;-81
2022/12/29 09:25:12;;;;;;;5.95;1.63;;;;;;;;;;5031802;28;20649;-81
2022/12/29 09:27:38;;;;;;;4.03;1.65;;;;;;;;;;5034793;28;20107;-80
2022/12/29 09:30:06;;;;;;;11.35;1.38;;;;;;;;;;5025128;28;20040;-83
2022/12/29 09:32:31;;;;;;;6.15;1.65;;;;;;;;;;5014172;28;20040;-81
2022/12/29 09:34:57;;;;;;;6.70;1.50;;;;;;;;;;5047170;28;20025;-82
2022/12/29 09:37:22;;;;;;;8.20;1.25;;;;;;;;;;5047826;28;20082;-82
2022/12/29 09:39:47;;;;;;;4.65;0.80;;;;;;;;;;5028864;28;20036;-82
2022/12/29 09:42:29;;;;;;;6.68;1.40;;;;;;;;;;5030044;28;20115;-82
2022/12/29 09:45:15;;;;;;;8.35;1.63;;;;;;;;;;5023932;28;20126;-79
2022/12/29 09:47:45;;;;;;;7.55;1.50;;;;;;;;;;5034693;28;20033;-83
2022/12/29 09:50:23;;;;;;;5.07;0.90;;;;;;;;;;5039555;28;20052;-82
2022/12/29 09:52:53;;;;;;;7.03;1.40;;;;;;;;;;5035970;28;20037;-82
2022/12/29 09:55:22;;;;;;;5.18;1.00;;;;;;;;;;5034820;28;20059;-81
2022/12/29 09:57:56;;;;;;;7.22;1.42;;;;;;;;;;5035160;28;20788;-83
2022/12/29 10:00:28;;;;;;;9.90;1.25;;;;;;;;;;5022613;28;20037;-82
2022/12/29 10:02:59;;;;;;;8.05;1.20;;;;;;;;;;5040549;28;20052;-82
2022/12/29 10:05:35;;;;;;;8.45;1.15;;;;;;;;;;5037906;28;20044;-82
2022/12/29 10:08:28;;;;;;;8.38;1.45;;;;;;;;;;5022195;28;20520;-81
2022/12/29 10:11:03;;;;;;;4.20;1.23;;;;;;;;;;5020676;28;20427;-82
2022/12/29 10:14:01;;;;;;;7.35;1.58;;;;;;;;;;5027272;28;20113;-82
2022/12/29 10:16:49;;;;;;;4.90;1.23;;;;;;;;;;5011626;28;20033;-83
2022/12/29 10:20:09;;;;;;;11.93;1.23;;;;;;;;;;4985677;28;20635;-87
2022/12/29 10:22:50;;;;;;;9.18;1.00;;;;;;;;;;4944603;28;20070;-83
2022/12/29 10:25:22;;;;;;;11.38;1.33;;;;;;;;;;5033039;28;20049;-83
2022/12/29 10:27:49;;;;;;;9.60;1.50;;;;;;;;;;5033720;28;20037;-83
2022/12/29 10:30:16;;;;;;;9.45;2.03;;;;;;;;;;5042478;28;20079;-83
2022/12/29 10:32:45;;;;;;;7.40;1.40;;;;;;;;;;5022434;28;20060;-82
2022/12/29 10:35:26;;;;;;;8.55;1.60;;;;;;;;;;5035072;28;20056;-83
2022/12/29 10:38:10;;;;;;;9.75;1.42;;;;;;;;;;5035743;28;20036;-83
2022/12/29 10:41:14;;;;;;;5.05;1.13;;;;;;;;;;5027475;28;20037;-83
2022/12/29 10:43:46;;;;;;;6.75;1.63;;;;;;;;;;5028203;28;20045;-79
2022/12/29 10:46:19;;;;;;;6.68;1.48;;;;;;;;;;5040405;28;20048;-84
2022/12/29 10:48:46;;;;;;;9.70;1.30;;;;;;;;;;5019214;28;20040;-82
2022/12/29 10:51:20;;;;;;;5.50;1.00;;;;;;;;;;5017732;28;20907;-85
2022/12/29 10:53:53;;;;;;;7.72;1.20;;;;;;;;;;5029470;28;20426;-84
2022/12/29 10:56:30;;;;;;;9.73;1.88;;;;;;;;;;5028460;28;20151;-84
2022/12/29 10:59:15;;;;;;;9.02;1.40;;;;;;;;;;5045843;28;20032;-84
2022/12/29 11:01:56;;;;;;;3.88;1.15;;;;;;;;;;5023321;28;20095;-84
2022/12/29 11:04:51;;;;;;;8.48;1.23;;;;;;;;;;5035973;28;20106;-81
2022/12/29 11:07:19;;;;;;;7.30;1.92;;;;;;;;;;5025647;28;20099;-84
2022/12/29 11:09:45;;;;;;;5.20;1.30;;;;;;;;;;5033290;28;20041;-83
2022/12/29 11:12:27;;;;;;;5.00;1.00;;;;;;;;;;5031591;28;20033;-83
2022/12/29 11:15:11;;;;;;;6.30;1.42;;;;;;;;;;5013878;28;20054;-84
2022/12/29 11:17:45;;;;;;;8.15;1.38;;;;;;;;;;5022055;28;20036;-84
2022/12/29 11:20:30;;;;;;;10.77;1.52;;;;;;;;;;5030710;28;20592;-84
2022/12/29 11:22:56;;;;;;;5.55;1.63;;;;;;;;;;5039281;28;20805;-82
2022/12/29 11:25:21;;;;;;;5.45;1.10;;;;;;;;;;5034700;28;20061;-84
2022/12/29 11:28:14;;;;;;;9.40;1.58;;;;;;;;;;5037766;28;20041;-84
2022/12/29 11:30:40;;;;;;;6.20;1.17;;;;;;;;;;5032171;28;20037;-85
2022/12/29 11:33:06;;;;;;;9.55;2.17;;;;;;;;;;5027979;28;20025;-85
2022/12/29 11:35:42;;;;;;;3.20;0.90;;;;;;;;;;5019441;28;20052;-84
2022/12/29 11:38:21;;;;;;;4.57;1.20;;;;;;;;;;5009740;28;20049;-85
2022/12/29 11:40:48;;;;;;;2.13;0.75;;;;;;;;;;5041745;28;20040;-86
2022/12/29 11:43:36;;;;;;;2.85;0.80;;;;;;;;;;5017244;28;20040;-85
2022/12/29 11:46:03;;;;;;;8.43;1.88;;;;;;;;;;5035370;28;20832;-83
2022/12/29 11:48:38;;;;;;;2.42;0.98;;;;;;;;;;5027599;28;20037;-84
2022/12/29 11:51:05;;;;;;;8.50;1.42;;;;;;;;;;5038455;28;20067;-84
2022/12/29 11:53:49;;;;;;;6.93;1.60;;;;;;;;;;5065043;28;20123;-84
2022/12/29 11:56:22;;;;;;;8.63;1.20;;;;;;;;;;5045678;28;20048;-83
2022/12/29 11:58:49;;;;;;;3.28;0.82;;;;;;;;;;5022717;28;20032;-83
2022/12/29 12:01:25;;;;;;;6.68;1.20;;;;;;;;;;5036035;28;20114;-83
2022/12/29 12:04:04;;;;;;;6.07;1.20;;;;;;;;;;5027830;28;20045;-82
2022/12/29 12:06:33;;;;;;;7.25;1.38;;;;;;;;;;5023975;28;20106;-82
2022/12/29 12:09:04;;;;;;;6.55;1.20;;;;;;;;;;5021155;28;20019;-81
2022/12/29 12:11:38;;;;;;;9.15;1.52;;;;;;;;;;5043646;28;20044;-82
2022/12/29 12:14:21;;;;;;;8.13;1.83;;;;;;;;;;5027486;28;20029;-82
2022/12/29 12:16:53;;;;;;;9.57;1.42;;;;;;;;;;5026003;28;20125;-83
2022/12/29 12:19:47;;;;;;;7.90;1.38;;;;;;;;;;5030609;28;20041;-83
2022/12/29 12:22:27;;;;;;;3.60;1.13;;;;;;;;;;5020128;28;20097;-84
2022/12/29 12:25:11;;;;;;;6.57;1.50;;;;;;;;;;5019954;28;20029;-82
2022/12/29 12:27:55;;;;;;;6.78;1.77;;;;;;;;;;5043047;28;20446;-82
2022/12/29 12:30:22;;;;;;;10.00;1.42;;;;;;;;;;5029159;28;20053;-81
2022/12/29 12:33:22;;;;;;;6.05;1.55;;;;;;;;;;5019583;28;20029;-81
2022/12/29 12:36:22;;;;;;;10.70;2.72;;;;;;;;;;5043150;28;20072;-81
2022/12/29 12:38:53;;;;;;;7.60;1.60;;;;;;;;;;5020773;28;20037;-82
2022/12/29 12:41:22;;;;;;;7.00;1.55;;;;;;;;;;5044079;28;20534;-82
2022/12/29 12:44:06;;;;;;;4.75;1.33;;;;;;;;;;5029821;28;20045;-81
2022/12/29 12:47:08;;;;;;;14.38;1.70;;;;;;;;;;5034092;28;20140;-81
2022/12/29 12:49:39;;;;;;;12.30;1.55;;;;;;;;;;5042634;28;20036;-81
2022/12/29 12:52:25;;;;;;;8.05;1.98;;;;;;;;;;5030070;28;20518;-81
2022/12/29 12:55:25;;;;;;;8.68;2.15;;;;;;;;;;5047266;28;20032;-82
2022/12/29 12:58:09;;;;;;;5.57;1.55;;;;;;;;;;5020430;28;20029;-80
2022/12/29 13:01:16;;;;;;;5.50;1.73;;;;;;;;;;5048600;28;20043;-81
2022/12/29 13:04:28;;;;;;;4.95;1.40;;;;;;;;;;5047827;28;20597;-82
2022/12/29 13:07:17;;;;;;;8.55;1.98;;;;;;;;;;4997479;28;20060;-86
2022/12/29 13:09:55;;;;;;;6.82;2.60;;;;;;;;;;5008451;28;20116;-85
2022/12/29 13:12:32;;;;;;;11.80;1.55;;;;;;;;;;5012156;28;20033;-84
2022/12/29 13:15:19;;;;;;;10.00;1.90;;;;;;;;;;5023511;28;20033;-90
2022/12/29 13:18:03;;;;;;;7.15;1.40;;;;;;;;;;5030125;28;20071;-92
2022/12/29 13:20:57;;;;;;;13.02;2.20;;;;;;;;;;5042750;28;20064;-78
2022/12/29 13:23:28;;;;;;;9.45;1.52;;;;;;;;;;5025898;28;20033;-82
2022/12/29 13:26:10;;;;;;;6.43;1.33;;;;;;;;;;5023163;28;20095;-79
2022/12/29 13:28:59;;;;;;;2.70;1.10;;;;;;;;;;5039590;28;20569;-80
2022/12/29 13:31:54;;;;;;;7.18;1.17;;;;;;;;;;5012036;28;20152;-80
2022/12/29 13:34:34;;;;;;;7.47;2.60;;;;;;;;;;5032587;28;20131;-81
2022/12/29 13:37:07;;;;;;;10.68;1.00;;;;;;;;;;5037437;28;20048;-81
2022/12/29 13:39:49;;;;;;;6.15;1.33;;;;;;;;;;5024615;28;20070;-79
2022/12/29 13:42:17;;;;;;;3.35;1.05;;;;;;;;;;5028939;28;20024;-80
2022/12/29 13:44:46;;;;;;;5.50;1.15;;;;;;;;;;5041151;28;20139;-80
2022/12/29 13:47:11;;;;;;;7.45;1.45;;;;;;;;;;5035645;28;20080;-80
2022/12/29 13:49:37;;;;;;;7.95;1.70;;;;;;;;;;5019778;28;20069;-80
2022/12/29 13:52:38;;;;;;;12.55;1.38;;;;;;;;;;5025824;28;20084;-80
2022/12/29 13:55:15;;;;;;;4.28;1.20;;;;;;;;;;5020267;28;20506;-82
2022/12/29 13:58:00;;;;;;;2.17;0.68;;;;;;;;;;5046332;28;20118;-81
2022/12/29 14:00:30;;;;;;;6.65;1.40;;;;;;;;;;5027801;28;20029;-80
2022/12/29 14:03:12;;;;;;;11.00;1.15;;;;;;;;;;5028004;28;20032;-81
2022/12/29 14:05:37;;;;;;;5.85;1.23;;;;;;;;;;5025434;28;20106;-81
2022/12/29 14:08:16;;;;;;;5.18;1.73;;;;;;;;;;5043405;28;20503;-81
2022/12/29 14:10:51;;;;;;;6.70;1.52;;;;;;;;;;5046792;28;20036;-81
2022/12/29 14:13:18;;;;;;;5.10;1.50;;;;;;;;;;5023379;28;20091;-81
2022/12/29 14:15:46;;;;;;;4.20;1.40;;;;;;;;;;5043127;28;20094;-80
2022/12/29 14:18:14;;;;;;;5.25;1.88;;;;;;;;;;5038593;28;20083;-80
2022/12/29 14:20:47;;;;;;;8.23;1.73;;;;;;;;;;5024542;28;20060;-81
2022/12/29 14:23:13;;;;;;;8.70;2.00;;;;;;;;;;5013140;28;20075;-81
2022/12/29 14:25:59;;;;;;;9.48;1.70;;;;;;;;;;5026271;28;20104;-81
2022/12/29 14:28:30;;;;;;;8.43;1.77;;;;;;;;;;5033252;28;20067;-81
2022/12/29 14:30:58;;;;;;;5.45;1.35;;;;;;;;;;5031458;28;20037;-81
2022/12/29 14:33:26;;;;;;;8.00;1.88;;;;;;;;;;5005767;28;20123;-81
2022/12/29 14:35:53;;;;;;;10.88;1.48;;;;;;;;;;5012558;28;20087;-81
2022/12/29 14:38:19;;;;;;;3.75;1.08;;;;;;;;;;5032020;28;20593;-80
2022/12/29 14:40:47;;;;;;;5.95;1.80;;;;;;;;;;5026263;28;20190;-80
2022/12/29 14:43:20;;;;;;;8.18;2.15;;;;;;;;;;5044361;28;20044;-81
2022/12/29 14:45:53;;;;;;;7.57;1.90;;;;;;;;;;5026167;28;20446;-81
2022/12/29 14:48:31;;;;;;;9.85;1.67;;;;;;;;;;5027109;28;20272;-81
2022/12/29 14:50:56;;;;;;;7.38;1.65;;;;;;;;;;5043307;28;20033;-81
2022/12/29 14:53:44;;;;;;;9.07;1.65;;;;;;;;;;5044714;28;20029;-80
2022/12/29 14:56:12;;;;;;;14.07;2.13;;;;;;;;;;5014494;28;20025;-81
2022/12/29 14:59:00;;;;;;;7.78;1.73;;;;;;;;;;5044442;28;20095;-81
2022/12/29 15:01:29;;;;;;;10.65;1.38;;;;;;;;;;5045261;28;20067;-82
2022/12/29 15:04:00;;;;;;;8.38;1.50;;;;;;;;;;5025554;28;20108;-82
2022/12/29 15:06:29;;;;;;;8.77;1.65;;;;;;;;;;5020852;28;20511;-81
2022/12/29 15:09:14;;;;;;;9.02;1.48;;;;;;;;;;5002628;28;20024;-80
2022/12/29 15:11:39;;;;;;;11.25;2.20;;;;;;;;;;5032089;28;20032;-81
2022/12/29 15:14:24;;;;;;;5.65;0.98;;;;;;;;;;5033535;28;20048;-86
2022/12/29 15:16:50;;;;;;;13.02;1.75;;;;;;;;;;5043632;28;20078;-81
2022/12/29 15:19:23;;;;;;;6.38;1.40;;;;;;;;;;5025504;28;20060;-79
2022/12/29 15:21:48;;;;;;;8.20;1.65;;;;;;;;;;5043343;28;20051;-79
2022/12/29 15:24:14;;;;;;;8.85;2.10;;;;;;;;;;5043006;28;20466;-79
2022/12/29 15:26:44;;;;;;;6.70;1.75;;;;;;;;;;5025647;28;20402;-78
2022/12/29 15:29:29;;;;;;;8.38;1.38;;;;;;;;;;5043537;28;20060;-78
2022/12/29 15:31:55;;;;;;;6.93;1.55;;;;;;;;;;5025819;28;20079;-80
2022/12/29 15:34:21;;;;;;;5.80;1.38;;;;;;;;;;5041420;28;20033;-82
2022/12/29 15:36:50;;;;;;;4.07;1.45;;;;;;;;;;5042963;28;20044;-81
2022/12/29 15:39:30;;;;;;;4.80;1.23;;;;;;;;;;5019807;28;20525;-81